createdAt,value
2019-02-07T00:01:37.317Z,9.17
2019-02-07T00:04:18.689Z,8.80
2019-02-07T00:07:08.079Z,9.83
2019-02-07T00:09:50.491Z,8.10
2019-02-07T00:12:32.992Z,9.50
2019-02-07T00:15:14.960Z,8.73
2019-02-07T00:17:57.782Z,9.33
2019-02-07T00:20:39.996Z,8.05
2019-02-07T00:23:22.200Z,8.88
2019-02-07T00:26:04.748Z,9.43
2019-02-07T00:28:46.993Z,9.70
2019-02-07T00:31:29.727Z,9.00
2019-02-07T00:34:12.252Z,8.97
2019-02-07T00:36:54.800Z,8.90
2019-02-07T00:39:37.301Z,8.95
2019-02-07T00:42:20.052Z,9.85
2019-02-07T00:45:02.520Z,10.43
2019-02-07T00:47:45.116Z,8.55
2019-02-07T00:50:27.432Z,8.98
2019-02-07T00:53:09.785Z,9.05
2019-02-07T00:55:52.688Z,9.60
2019-02-07T00:58:35.052Z,8.80
2019-02-07T01:01:16.828Z,8.80
2019-02-07T01:03:59.655Z,8.85
2019-02-07T01:06:42.756Z,8.05
2019-02-07T01:09:25.440Z,9.23
2019-02-07T01:12:08.298Z,9.00
2019-02-07T01:15:01.433Z,9.20
2019-02-07T01:17:34.633Z,9.40
2019-02-07T01:20:16.849Z,9.43
2019-02-07T01:22:58.816Z,7.80
2019-02-07T01:25:48.181Z,8.08
2019-02-07T01:28:30.316Z,8.78
2019-02-07T01:31:13.273Z,8.73
2019-02-07T01:33:54.939Z,8.18
2019-02-07T01:36:38.460Z,7.85
2019-02-07T01:39:21.109Z,7.75
2019-02-07T01:42:03.686Z,7.28
2019-02-07T01:44:45.741Z,8.33
2019-02-07T01:47:28.385Z,8.30
2019-02-07T01:50:11.663Z,9.13
2019-02-07T01:52:55.209Z,8.15
2019-02-07T01:55:37.686Z,8.00
2019-02-07T01:58:19.890Z,7.10
2019-02-07T02:01:01.839Z,8.28
2019-02-07T02:03:44.252Z,7.15
2019-02-07T02:06:25.970Z,7.70
2019-02-07T02:09:09.179Z,7.78
2019-02-07T02:11:52.541Z,8.53
2019-02-07T02:14:35.462Z,8.45
2019-02-07T02:17:17.901Z,7.95
2019-02-07T02:20:00.304Z,8.45
2019-02-07T02:22:43.088Z,6.92
2019-02-07T02:25:25.545Z,9.08
2019-02-07T02:28:07.592Z,7.60
2019-02-07T02:30:49.788Z,7.25
2019-02-07T02:33:31.597Z,7.65
2019-02-07T02:36:14.432Z,8.23
2019-02-07T02:38:57.226Z,8.30
2019-02-07T02:41:39.725Z,8.43
2019-02-07T02:44:21.677Z,7.42
2019-02-07T02:47:04.522Z,8.25
2019-02-07T02:49:46.808Z,8.05
2019-02-07T02:52:28.909Z,9.28
2019-02-07T02:55:12.260Z,8.28
2019-02-07T02:57:55.244Z,7.55
2019-02-07T03:00:56.001Z,7.55
2019-02-07T03:03:56.900Z,6.67
2019-02-07T03:06:55.955Z,7.53
2019-02-07T03:09:57.529Z,6.95
2019-02-07T03:12:59.009Z,8.30
2019-02-07T03:15:59.820Z,8.00
2019-02-07T03:18:51.582Z,6.92
2019-02-07T03:22:17.220Z,7.00
2019-02-07T03:25:39.557Z,7.53
2019-02-07T03:28:34.245Z,7.25
2019-02-07T03:31:35.327Z,6.83
2019-02-07T03:34:23.668Z,7.00
2019-02-07T03:37:18.003Z,8.30
2019-02-07T03:40:13.268Z,7.65
2019-02-07T03:43:14.396Z,6.95
2019-02-07T03:46:18.732Z,8.68
2019-02-07T03:49:32.336Z,8.93
2019-02-07T03:52:33.389Z,9.50
2019-02-07T03:55:37.828Z,8.60
2019-02-07T03:58:33.119Z,6.60
2019-02-07T04:01:28.736Z,9.20
2019-02-07T04:04:30.349Z,7.72
2019-02-07T04:11:00.132Z,9.13
2019-02-07T04:13:56.565Z,7.80
2019-02-07T04:17:18.673Z,6.97
2019-02-07T04:20:21.021Z,7.40
2019-02-07T04:23:09.618Z,8.28
2019-02-07T04:26:16.190Z,8.15
2019-02-07T04:29:12.049Z,9.25
2019-02-07T04:32:04.161Z,7.28
2019-02-07T04:35:00.493Z,7.92
2019-02-07T04:38:02.169Z,8.50
2019-02-07T04:41:03.974Z,8.88
2019-02-07T04:43:57.797Z,7.55
2019-02-07T04:46:58.798Z,8.30
2019-02-07T04:49:58.312Z,7.37
2019-02-07T04:52:51.983Z,8.40
2019-02-07T04:56:12.780Z,9.20
2019-02-07T04:59:14.613Z,8.45
2019-02-07T05:02:15.429Z,9.43
2019-02-07T05:05:16.913Z,7.90
2019-02-07T05:08:17.922Z,8.48
2019-02-07T05:11:24.627Z,9.68
2019-02-07T05:14:24.624Z,9.88
2019-02-07T05:17:33.312Z,7.87
2019-02-07T05:20:35.005Z,8.00
2019-02-07T05:23:35.965Z,10.10
2019-02-07T05:26:40.685Z,11.28
2019-02-07T05:29:44.600Z,9.40
2019-02-07T05:32:45.666Z,10.65
2019-02-07T05:35:47.316Z,9.13
2019-02-07T05:38:41.689Z,10.68
2019-02-07T05:41:17.712Z,10.60
2019-02-07T05:44:13.779Z,9.23
2019-02-07T05:47:14.926Z,8.28
2019-02-07T05:50:07.723Z,9.28
2019-02-07T05:53:08.886Z,8.30
2019-02-07T05:56:09.689Z,9.48
2019-02-07T05:59:02.106Z,9.55
2019-02-07T06:02:03.126Z,8.45
2019-02-07T06:05:04.755Z,9.88
2019-02-07T06:07:59.144Z,9.33
2019-02-07T06:10:49.794Z,10.32
2019-02-07T06:13:51.223Z,9.58
2019-02-07T06:17:02.342Z,10.15
2019-02-07T06:19:47.440Z,8.93
2019-02-07T06:22:24.452Z,10.18
2019-02-07T06:25:32.945Z,9.95
2019-02-07T06:28:22.388Z,9.98
2019-02-07T06:31:31.384Z,9.98
2019-02-07T06:34:32.216Z,12.93
2019-02-07T06:37:25.097Z,10.15
2019-02-07T06:40:14.525Z,9.95
2019-02-07T06:43:01.284Z,9.98
2019-02-07T06:45:49.188Z,12.93
2019-02-07T06:48:37.512Z,10.55
2019-02-07T06:51:18.020Z,11.50
2019-02-07T06:54:06.319Z,11.45
2019-02-07T06:56:51.688Z,10.30
2019-02-07T06:59:50.129Z,11.65
2019-02-07T07:02:46.040Z,10.35
2019-02-07T07:05:32.167Z,13.45
2019-02-07T07:08:10.551Z,10.55
2019-02-07T07:10:53.941Z,10.40
2019-02-07T07:13:37.899Z,10.53
2019-02-07T07:16:26.703Z,11.78
2019-02-07T07:19:14.940Z,11.08
2019-02-07T07:21:56.632Z,11.40
2019-02-07T07:24:39.288Z,11.63
2019-02-07T07:27:48.491Z,12.10
2019-02-07T07:30:49.553Z,11.88
2019-02-07T07:33:46.268Z,9.85
2019-02-07T07:36:48.189Z,10.45
2019-02-07T07:39:49.605Z,11.40
2019-02-07T07:42:50.815Z,10.35
2019-02-07T07:45:58.122Z,11.05
2019-02-07T07:48:45.276Z,12.20
2019-02-07T07:51:54.241Z,12.55
2019-02-07T07:54:52.033Z,11.73
2019-02-07T07:57:52.943Z,9.40
2019-02-07T08:00:58.732Z,10.18
2019-02-07T08:03:53.836Z,12.37
2019-02-07T08:06:55.420Z,12.88
2019-02-07T08:09:57.544Z,11.97
2019-02-07T08:12:58.369Z,10.00
2019-02-07T08:16:00.167Z,10.48
2019-02-07T08:19:08.129Z,11.80
2019-02-07T08:22:05.354Z,12.75
2019-02-07T08:25:27.186Z,11.08
2019-02-07T08:28:29.066Z,10.73
2019-02-07T08:34:30.397Z,9.83
2019-02-07T08:37:31.864Z,10.88
2019-02-07T08:40:33.480Z,10.90
2019-02-07T08:43:34.305Z,9.60
2019-02-07T08:46:42.328Z,10.20
2019-02-07T08:49:34.924Z,10.05
2019-02-07T08:52:28.953Z,9.38
2019-02-07T08:55:36.458Z,11.00
2019-02-07T08:58:38.189Z,17.10
2019-02-07T09:01:39.601Z,34.47
2019-02-07T09:04:31.427Z,36.65
2019-02-07T09:07:16.885Z,36.98
2019-02-07T09:10:01.909Z,14.90
2019-02-07T09:12:57.242Z,13.30
2019-02-07T09:15:51.889Z,10.10
2019-02-07T09:18:44.152Z,9.78
2019-02-07T09:21:51.688Z,15.57
2019-02-07T09:24:53.277Z,21.97
2019-02-07T09:27:54.726Z,16.55
2019-02-07T09:30:56.176Z,19.37
2019-02-07T09:33:57.859Z,12.47
2019-02-07T09:37:06.046Z,11.55
2019-02-07T09:40:07.353Z,14.63
2019-02-07T09:42:57.896Z,18.77
2019-02-07T09:45:59.944Z,21.30
2019-02-07T09:48:58.039Z,20.70
2019-02-07T09:51:52.576Z,17.10
2019-02-07T09:54:53.548Z,25.25
2019-02-07T10:01:12.017Z,9.95
2019-02-07T10:07:17.208Z,7.00
2019-02-07T10:10:25.997Z,7.30
2019-02-07T10:13:28.104Z,6.05
2019-02-07T10:16:29.203Z,9.45
2019-02-07T10:19:31.345Z,12.00
2019-02-07T10:22:32.268Z,8.20
2019-02-07T10:25:33.780Z,7.00
2019-02-07T10:28:28.145Z,6.83
2019-02-07T10:31:30.178Z,8.10
2019-02-07T10:34:31.365Z,9.20
2019-02-07T10:37:32.208Z,7.85
2019-02-07T10:40:34.636Z,9.10
2019-02-07T10:43:26.576Z,7.72
2019-02-07T10:46:15.304Z,6.43
2019-02-07T10:49:19.911Z,6.60
2019-02-07T10:52:28.698Z,6.47
2019-02-07T10:55:30.052Z,6.30
2019-02-07T10:58:33.202Z,6.90
2019-02-07T11:01:32.123Z,6.53
2019-02-07T11:04:26.381Z,7.83
2019-02-07T11:07:23.715Z,6.57
2019-02-07T11:13:43.923Z,6.53
2019-02-07T11:16:50.922Z,6.40
2019-02-07T11:19:49.367Z,6.40
2019-02-07T11:22:29.460Z,6.00
2019-02-07T11:25:16.080Z,5.70
2019-02-07T11:28:10.561Z,6.60
2019-02-07T11:30:54.805Z,6.03
2019-02-07T11:33:47.048Z,6.93
2019-02-07T11:36:31.894Z,5.70
2019-02-07T11:39:13.770Z,5.07
2019-02-07T11:42:09.373Z,7.37
2019-02-07T11:44:55.612Z,6.07
2019-02-07T11:47:44.010Z,6.40
2019-02-07T11:50:32.280Z,6.03
2019-02-07T11:53:13.096Z,6.47
2019-02-07T11:56:00.669Z,6.57
2019-02-07T11:58:53.835Z,7.57
2019-02-07T12:01:36.327Z,5.97
2019-02-07T12:04:31.788Z,7.50
2019-02-07T12:07:18.554Z,7.47
2019-02-07T12:10:09.704Z,7.40
2019-02-07T12:12:52.288Z,8.07
2019-02-07T12:16:00.959Z,7.40
2019-02-07T12:18:56.615Z,7.83
2019-02-07T12:21:46.277Z,7.37
2019-02-07T12:24:25.842Z,7.40
2019-02-07T12:27:10.730Z,7.47
2019-02-07T12:30:07.707Z,7.20
2019-02-07T12:33:14.898Z,7.80
2019-02-07T12:36:16.793Z,8.20
2019-02-07T12:39:06.784Z,6.93
2019-02-07T12:42:10.072Z,8.67
2019-02-07T12:45:11.774Z,7.10
2019-02-07T12:51:29.272Z,7.80
2019-02-07T12:54:34.225Z,7.20
2019-02-07T12:57:43.763Z,6.23
2019-02-07T13:00:45.893Z,8.20
2019-02-07T13:03:41.977Z,7.30
2019-02-07T13:06:43.548Z,7.40
2019-02-07T13:09:45.040Z,8.87
2019-02-07T13:16:05.072Z,8.33
2019-02-07T13:19:06.083Z,8.70
2019-02-07T13:22:07.606Z,8.60
2019-02-07T13:25:09.750Z,7.77
2019-02-07T13:28:11.427Z,7.63
2019-02-07T13:31:13.030Z,10.07
2019-02-07T13:34:14.814Z,8.83
2019-02-07T13:37:15.164Z,7.67
2019-02-07T13:43:43.217Z,9.60
2019-02-07T13:46:39.154Z,7.73
2019-02-07T13:49:51.991Z,7.50
2019-02-07T13:53:08.213Z,8.50
2019-02-07T13:59:35.979Z,7.57
2019-02-07T14:02:37.744Z,7.80
2019-02-07T14:05:42.423Z,8.70
2019-02-07T14:08:55.467Z,6.40
2019-02-07T14:11:45.948Z,7.63
2019-02-07T14:14:47.088Z,7.13
2019-02-07T14:17:48.573Z,8.30
2019-02-07T14:20:50.337Z,7.50
2019-02-07T14:23:49.836Z,8.40
2019-02-07T14:26:58.563Z,6.40
2019-02-07T14:29:47.265Z,6.67
2019-02-07T14:32:43.084Z,6.20
2019-02-07T14:39:08.778Z,8.17
2019-02-07T14:42:09.928Z,7.17
2019-02-07T14:45:18.360Z,7.90
2019-02-07T14:48:00.865Z,6.53
2019-02-07T14:50:43.607Z,7.40
2019-02-07T14:53:26.605Z,8.27
2019-02-07T14:56:08.584Z,5.57
2019-02-07T14:58:50.841Z,7.63
2019-02-07T15:01:33.441Z,5.97
2019-02-07T15:04:16.421Z,7.67
2019-02-07T15:06:58.856Z,6.27
2019-02-07T15:09:40.613Z,9.53
2019-02-07T15:12:22.804Z,6.87
2019-02-07T15:15:06.532Z,5.93
2019-02-07T15:17:49.493Z,5.73
2019-02-07T15:20:32.127Z,5.67
2019-02-07T15:25:55.313Z,6.17
2019-02-07T15:28:37.766Z,6.17
2019-02-07T15:31:20.371Z,6.13
2019-02-07T15:34:02.948Z,6.00
2019-02-07T15:36:45.709Z,6.47
2019-02-07T15:39:27.574Z,6.40
2019-02-07T15:42:10.065Z,6.47
2019-02-07T15:44:51.839Z,6.70
2019-02-07T15:47:34.088Z,6.03
2019-02-07T15:50:16.420Z,6.57
2019-02-07T15:53:01.865Z,6.07
2019-02-07T15:55:44.737Z,4.90
2019-02-07T16:05:08.958Z,6.70
2019-02-07T16:07:51.388Z,7.33
2019-02-07T16:10:33.610Z,7.03
2019-02-07T16:13:16.307Z,7.60
2019-02-07T16:15:58.980Z,7.70
2019-02-07T16:18:42.059Z,10.43
2019-02-07T16:21:24.912Z,9.80
2019-02-07T16:24:08.088Z,11.40
2019-02-07T16:26:50.428Z,8.83
2019-02-07T16:29:32.142Z,7.40
2019-02-07T16:32:13.909Z,7.93
2019-02-07T16:34:56.465Z,8.13
2019-02-07T16:37:38.960Z,6.57
2019-02-07T16:40:22.149Z,5.43
2019-02-07T16:43:04.688Z,5.90
2019-02-07T16:45:46.824Z,7.00
2019-02-07T16:48:29.234Z,7.10
2019-02-07T16:51:11.039Z,6.43
2019-02-07T16:53:53.477Z,8.70
2019-02-07T16:56:35.916Z,6.47
2019-02-07T16:59:18.641Z,7.00
2019-02-07T17:01:59.728Z,6.90
2019-02-07T17:07:50.805Z,6.87
2019-02-07T17:10:32.808Z,7.77
2019-02-07T17:13:15.246Z,7.57
2019-02-07T17:15:58.140Z,7.27
2019-02-07T17:18:40.693Z,8.07
2019-02-07T17:21:23.396Z,6.83
2019-02-07T17:24:06.717Z,7.60
2019-02-07T17:26:49.288Z,8.90
2019-02-07T17:29:31.342Z,7.10
2019-02-07T17:32:13.713Z,7.27
2019-02-07T17:34:56.241Z,7.37
2019-02-07T17:37:38.890Z,7.70
2019-02-07T17:40:22.040Z,6.40
2019-02-07T17:43:04.489Z,8.13
2019-02-07T17:45:46.872Z,7.20
2019-02-07T17:48:29.214Z,7.63
2019-02-07T17:51:22.659Z,7.23
2019-02-07T17:53:55.373Z,8.50
2019-02-07T17:56:38.133Z,8.00
2019-02-07T17:59:19.836Z,8.80
2019-02-07T18:02:02.604Z,8.40
2019-02-07T18:04:45.628Z,7.40
2019-02-07T18:07:28.513Z,7.63
2019-02-07T18:10:10.791Z,8.50
2019-02-07T18:12:53.153Z,8.37
2019-02-07T18:15:36.124Z,6.93
2019-02-07T18:18:19.019Z,7.97
2019-02-07T18:21:01.384Z,8.30
2019-02-07T18:23:44.332Z,7.40
2019-02-07T18:26:27.700Z,9.87
2019-02-07T18:29:10.036Z,9.80
2019-02-07T18:31:52.221Z,9.30
2019-02-07T18:34:35.125Z,9.00
2019-02-07T18:37:17.289Z,8.40
2019-02-07T18:39:57.813Z,8.50
2019-02-07T18:42:47.293Z,10.27
2019-02-07T18:45:29.997Z,8.20
2019-02-07T18:48:13.698Z,8.60
2019-02-07T18:50:56.456Z,8.87
2019-02-07T18:53:39.063Z,7.58
2019-02-07T18:56:21.293Z,9.27
2019-02-07T18:59:03.536Z,9.23
2019-02-07T19:01:45.282Z,9.03
2019-02-07T19:04:25.965Z,7.60
2019-02-07T19:10:16.324Z,9.13
2019-02-07T19:12:59.120Z,7.93
2019-02-07T19:15:41.468Z,8.15
2019-02-07T19:18:23.820Z,9.30
2019-02-07T19:21:06.364Z,9.63
2019-02-07T19:23:48.188Z,9.20
2019-02-07T19:26:31.183Z,9.87
2019-02-07T19:29:13.815Z,8.73
2019-02-07T19:31:56.961Z,10.03
2019-02-07T19:34:39.756Z,9.23
2019-02-07T19:37:25.349Z,9.93
2019-02-07T19:40:07.824Z,10.37
2019-02-07T19:42:50.902Z,10.90
2019-02-07T19:45:34.021Z,11.10
2019-02-07T19:48:16.560Z,9.08
2019-02-07T19:50:58.792Z,10.95
2019-02-07T19:53:41.544Z,11.07
2019-02-07T19:56:23.788Z,11.43
2019-02-07T19:59:06.605Z,12.10
2019-02-07T20:01:49.012Z,11.63
2019-02-07T20:04:31.392Z,11.00
2019-02-07T20:07:11.892Z,11.55
2019-02-07T20:10:01.418Z,10.90
2019-02-07T20:13:03.135Z,10.20
2019-02-07T20:15:45.140Z,9.47
2019-02-07T20:18:27.635Z,11.53
2019-02-07T20:21:10.586Z,11.43
2019-02-07T20:23:53.020Z,12.53
2019-02-07T20:26:35.530Z,12.78
2019-02-07T20:29:18.072Z,14.13
2019-02-07T20:32:00.976Z,11.30
2019-02-07T20:34:42.675Z,12.93
2019-02-07T20:37:25.483Z,13.15
2019-02-07T20:40:08.980Z,12.63
2019-02-07T20:42:50.917Z,12.10
2019-02-07T20:45:33.977Z,12.43
2019-02-07T20:48:16.649Z,11.40
2019-02-07T20:50:59.154Z,14.10
2019-02-07T20:53:42.110Z,14.67
2019-02-07T20:56:25.301Z,12.43
2019-02-07T20:59:07.676Z,13.57
2019-02-07T21:01:49.996Z,13.13
2019-02-07T21:04:32.860Z,12.65
2019-02-07T21:07:14.929Z,14.23
2019-02-07T21:09:57.049Z,12.83
2019-02-07T21:12:39.392Z,15.40
2019-02-07T21:15:22.084Z,13.53
2019-02-07T21:18:04.533Z,14.53
2019-02-07T21:20:45.937Z,14.63
2019-02-07T21:23:35.673Z,14.78
2019-02-07T21:26:17.959Z,14.53
2019-02-07T21:29:00.593Z,13.97
2019-02-07T21:31:43.072Z,13.70
2019-02-07T21:34:25.221Z,13.90
2019-02-07T21:37:07.684Z,15.00
2019-02-07T21:39:49.980Z,14.30
2019-02-07T21:42:30.658Z,15.83
2019-02-07T21:48:27.822Z,16.15
2019-02-07T21:51:09.876Z,13.68
2019-02-07T21:53:52.416Z,17.45
2019-02-07T21:56:35.077Z,16.17
2019-02-07T21:59:17.577Z,13.43
2019-02-07T22:02:00.064Z,17.67
2019-02-07T22:04:42.088Z,15.03
2019-02-07T22:07:24.673Z,16.90
2019-02-07T22:10:07.311Z,15.93
2019-02-07T22:12:49.525Z,14.83
2019-02-07T22:15:32.045Z,16.20
2019-02-07T22:18:13.799Z,15.75
2019-02-07T22:20:56.232Z,19.20
2019-02-07T22:23:38.088Z,16.42
2019-02-07T22:26:20.300Z,16.87
2019-02-07T22:29:02.481Z,15.30
2019-02-07T22:31:45.708Z,16.70
2019-02-07T22:34:28.245Z,18.03
2019-02-07T22:37:10.784Z,17.00
2019-02-07T22:39:53.052Z,17.65
2019-02-07T22:42:35.928Z,15.95
2019-02-07T22:45:18.229Z,14.68
2019-02-07T22:48:02.176Z,17.37
2019-02-07T22:50:44.404Z,15.50
2019-02-07T22:53:26.885Z,15.58
2019-02-07T22:56:09.214Z,17.37
2019-02-07T22:58:50.121Z,17.12
2019-02-07T23:05:11.617Z,16.67
2019-02-07T23:07:53.796Z,18.00
2019-02-07T23:10:35.636Z,18.20
2019-02-07T23:13:17.908Z,17.23
2019-02-07T23:15:59.788Z,16.43
2019-02-07T23:18:42.301Z,15.18
2019-02-07T23:21:25.224Z,14.10
2019-02-07T23:24:07.248Z,16.00
2019-02-07T23:26:49.781Z,15.57
2019-02-07T23:29:32.817Z,15.45
2019-02-07T23:32:15.265Z,16.00
2019-02-07T23:34:57.387Z,16.55
2019-02-07T23:37:40.071Z,15.90
2019-02-07T23:40:22.640Z,14.00
2019-02-07T23:43:04.403Z,15.80
2019-02-07T23:45:46.868Z,15.45
2019-02-07T23:48:29.935Z,15.88
2019-02-07T23:51:12.664Z,14.60
2019-02-07T23:53:55.224Z,17.27
2019-02-07T23:56:37.589Z,18.00
2019-02-07T23:59:20.258Z,16.10
